Fort Wayne, Indiana
Current Conditions -  °F | °C
As of 3:54 PM on Tuesday 25 Nov 2014 (Local Time) from KFWA Reporting Station
Overcast Overcast  
Wind Chill: 18°   Ceiling: 2100
Heat Index: 28°   Visibility: 10mi
Dew Point: 20°   Wind: 12mph
Humidity: 72%   Direction: 270°W
Pressure: 30.14"   Gusts: NA
Location:  41.08°N, 85.1°W
Report Text: KFWA 252054Z 27010KT 10SM OVC021 M02/M07 A3014 RMK AO2 SLP217 T10221067 53018
Loading
Personal Weather Stations






























Interactive Weather Map New forecast layout! Learn more

10-Day Weather Forecast

Advertisements
Track Severe Weather on mobile